createdAt,value
2018-12-27T00:00:45.517Z,3.30
2018-12-27T00:01:52.538Z,3.40
2018-12-27T00:02:59.501Z,3.40
2018-12-27T00:04:06.537Z,3.40
2018-12-27T00:05:13.540Z,3.30
2018-12-27T00:06:20.590Z,3.30
2018-12-27T00:07:27.608Z,3.40
2018-12-27T00:08:54.416Z,3.40
2018-12-27T00:10:21.308Z,3.30
2018-12-27T00:11:28.432Z,3.30
2018-12-27T00:12:55.257Z,3.30
2018-12-27T00:14:02.231Z,3.30
2018-12-27T00:15:09.260Z,3.30
2018-12-27T00:16:16.287Z,3.30
2018-12-27T00:17:23.217Z,3.30
2018-12-27T00:18:30.204Z,3.30
2018-12-27T00:19:37.252Z,3.30
2018-12-27T00:20:44.268Z,3.30
2018-12-27T00:21:51.238Z,3.30
2018-12-27T00:22:58.229Z,3.30
2018-12-27T00:24:05.209Z,3.30
2018-12-27T00:25:12.497Z,3.30
2018-12-27T00:26:19.477Z,3.30
2018-12-27T00:27:26.496Z,3.30
2018-12-27T00:28:33.423Z,3.40
2018-12-27T00:29:40.395Z,3.30
2018-12-27T00:30:47.369Z,3.30
2018-12-27T00:31:54.396Z,3.30
2018-12-27T00:33:03.204Z,3.30
2018-12-27T00:34:30.140Z,3.30
2018-12-27T00:35:37.087Z,3.30
2018-12-27T00:36:44.136Z,3.40
2018-12-27T00:37:51.123Z,3.40
2018-12-27T00:38:58.068Z,3.30
2018-12-27T00:40:05.064Z,3.30
2018-12-27T00:41:12.014Z,3.30
2018-12-27T00:42:18.992Z,3.30
2018-12-27T00:43:25.955Z,3.30
2018-12-27T00:44:32.931Z,3.30
2018-12-27T00:45:39.931Z,3.40
2018-12-27T00:46:46.960Z,3.40
2018-12-27T00:47:53.929Z,3.40
2018-12-27T00:49:20.742Z,3.30
2018-12-27T00:50:27.747Z,3.40
2018-12-27T00:51:34.747Z,3.40
2018-12-27T00:52:41.779Z,3.30
2018-12-27T00:53:48.756Z,3.40
2018-12-27T00:54:55.717Z,3.30
2018-12-27T00:56:02.695Z,3.30
2018-12-27T00:57:09.713Z,3.30
2018-12-27T00:58:16.668Z,3.40
2018-12-27T00:59:23.597Z,3.30
2018-12-27T01:00:30.603Z,3.30
2018-12-27T01:01:37.559Z,3.40
2018-12-27T01:02:44.527Z,3.40
2018-12-27T01:03:51.499Z,3.30
2018-12-27T01:04:58.458Z,3.40
2018-12-27T01:06:05.559Z,3.30
2018-12-27T01:07:12.543Z,3.30
2018-12-27T01:08:19.571Z,3.40
2018-12-27T01:09:26.571Z,3.30
2018-12-27T01:10:33.511Z,3.30
2018-12-27T01:11:40.480Z,3.30
2018-12-27T01:12:40.984Z,3.30
2018-12-27T01:13:44.516Z,3.30
2018-12-27T01:14:47.972Z,3.30
2018-12-27T01:15:48.501Z,3.30
2018-12-27T01:17:31.498Z,3.30
2018-12-27T01:18:32.005Z,3.30
2018-12-27T01:19:32.511Z,3.30
2018-12-27T01:20:30.700Z,3.30
2018-12-27T01:21:37.686Z,3.30
2018-12-27T01:22:44.641Z,3.30
2018-12-27T01:23:51.623Z,3.40
2018-12-27T01:24:58.594Z,3.40
2018-12-27T01:26:05.611Z,3.30
2018-12-27T01:27:32.541Z,3.30
2018-12-27T01:28:39.470Z,3.30
2018-12-27T01:29:46.422Z,3.30
2018-12-27T01:31:13.264Z,3.30
2018-12-27T01:32:20.270Z,3.30
2018-12-27T01:33:27.209Z,3.40
2018-12-27T01:34:36.099Z,3.30
2018-12-27T01:35:43.116Z,3.40
2018-12-27T01:36:50.084Z,3.30
2018-12-27T01:38:17.057Z,3.30
2018-12-27T01:39:24.211Z,3.40
2018-12-27T01:40:31.175Z,3.40
2018-12-27T01:41:38.140Z,3.40
2018-12-27T01:42:45.095Z,3.30
2018-12-27T01:43:52.240Z,3.30
2018-12-27T01:44:59.238Z,3.30
2018-12-27T01:46:06.312Z,3.30
2018-12-27T01:47:13.282Z,3.40
2018-12-27T01:48:20.264Z,3.30
2018-12-27T01:49:27.249Z,3.30
2018-12-27T01:50:34.313Z,3.30
2018-12-27T01:51:41.234Z,3.40
2018-12-27T01:52:48.376Z,3.40
2018-12-27T01:53:55.312Z,3.30
2018-12-27T01:55:02.248Z,3.40
2018-12-27T01:56:09.287Z,3.30
2018-12-27T01:57:16.358Z,3.30
2018-12-27T01:58:23.284Z,3.30
2018-12-27T01:59:30.251Z,3.30
2018-12-27T02:00:37.192Z,3.30
2018-12-27T02:01:44.283Z,3.30
2018-12-27T02:02:51.290Z,3.30
2018-12-27T02:03:58.236Z,3.30
2018-12-27T02:05:05.232Z,3.30
2018-12-27T02:06:12.175Z,3.30
2018-12-27T02:07:19.162Z,3.30
2018-12-27T02:08:26.111Z,3.30
2018-12-27T02:09:33.104Z,3.30
2018-12-27T02:10:40.062Z,3.30
2018-12-27T02:11:47.044Z,3.30
2018-12-27T02:12:46.811Z,3.30
2018-12-27T02:13:46.407Z,3.30
2018-12-27T02:14:46.883Z,3.30
2018-12-27T02:15:46.534Z,3.30
2018-12-27T02:16:46.214Z,3.30
2018-12-27T02:17:46.717Z,3.30
2018-12-27T02:18:46.780Z,3.30
2018-12-27T02:19:49.716Z,3.30
2018-12-27T02:20:50.445Z,3.30
2018-12-27T02:21:50.864Z,3.30
2018-12-27T02:22:50.617Z,3.30
2018-12-27T02:23:51.524Z,3.30
2018-12-27T02:24:51.588Z,3.30
2018-12-27T02:25:52.161Z,3.30
2018-12-27T02:26:51.670Z,3.30
2018-12-27T02:27:51.258Z,3.30
2018-12-27T02:28:51.731Z,3.20
2018-12-27T02:29:52.139Z,3.20
2018-12-27T02:30:54.728Z,3.30
2018-12-27T02:31:55.202Z,3.20
2018-12-27T02:34:19.620Z,3.30
2018-12-27T02:35:19.923Z,3.30
2018-12-27T02:36:20.427Z,3.30
2018-12-27T02:37:21.070Z,3.20
2018-12-27T02:38:08.763Z,3.30
2018-12-27T02:39:15.764Z,3.30
2018-12-27T02:41:49.892Z,3.30
2018-12-27T02:42:56.901Z,3.20
2018-12-27T02:44:03.833Z,3.30
2018-12-27T02:45:10.803Z,3.30
2018-12-27T02:46:17.807Z,3.30
2018-12-27T02:47:24.740Z,3.20
2018-12-27T02:48:31.717Z,3.30
2018-12-27T02:49:38.693Z,3.30
2018-12-27T02:50:45.624Z,3.30
2018-12-27T02:51:52.616Z,3.30
2018-12-27T02:52:59.576Z,3.30
2018-12-27T02:55:13.730Z,3.30
2018-12-27T02:56:20.727Z,3.30
2018-12-27T02:57:27.672Z,3.30
2018-12-27T02:58:34.628Z,3.30
2018-12-27T02:59:41.610Z,3.30
2018-12-27T03:00:48.580Z,3.30
2018-12-27T03:01:55.585Z,3.30
2018-12-27T03:03:02.525Z,3.30
2018-12-27T03:04:09.493Z,3.30
2018-12-27T03:05:16.451Z,3.30
2018-12-27T03:06:23.515Z,3.30
2018-12-27T03:07:11.164Z,3.30
2018-12-27T03:08:37.956Z,3.30
2018-12-27T03:09:44.945Z,3.30
2018-12-27T03:10:52.026Z,3.30
2018-12-27T03:11:58.991Z,3.30
2018-12-27T03:12:59.462Z,3.20
2018-12-27T03:13:59.855Z,3.20
2018-12-27T03:15:00.356Z,3.20
2018-12-27T03:15:58.452Z,3.20
2018-12-27T03:17:05.391Z,3.20
2018-12-27T03:18:12.449Z,3.20
2018-12-27T03:19:19.424Z,3.20
2018-12-27T03:20:26.373Z,3.10
2018-12-27T03:21:33.344Z,3.10
2018-12-27T03:23:00.117Z,3.10
2018-12-27T03:24:07.052Z,3.00
2018-12-27T03:25:14.112Z,3.00
2018-12-27T03:26:21.094Z,3.00
2018-12-27T03:27:28.081Z,3.00
2018-12-27T03:28:35.037Z,3.00
2018-12-27T03:29:42.128Z,3.00
2018-12-27T03:30:49.119Z,3.00
2018-12-27T03:31:56.057Z,2.90
2018-12-27T03:33:03.061Z,3.00
2018-12-27T03:34:10.012Z,3.00
2018-12-27T03:35:16.977Z,2.80
2018-12-27T03:36:23.925Z,2.80
2018-12-27T03:40:24.262Z,2.80
2018-12-27T03:41:31.215Z,2.80
2018-12-27T03:42:38.205Z,2.80
2018-12-27T03:43:45.286Z,2.70
2018-12-27T03:44:52.261Z,2.70
2018-12-27T03:45:59.246Z,2.70
2018-12-27T03:47:06.211Z,2.60
2018-12-27T03:48:13.159Z,2.60
2018-12-27T03:49:20.180Z,2.60
2018-12-27T03:50:46.960Z,2.60
2018-12-27T03:51:54.006Z,2.60
2018-12-27T03:53:02.945Z,2.60
2018-12-27T03:54:10.054Z,2.50
2018-12-27T03:55:16.989Z,2.50
2018-12-27T03:56:24.002Z,2.50
2018-12-27T03:57:31.054Z,2.50
2018-12-27T04:00:07.221Z,2.40
2018-12-27T04:01:14.167Z,2.40
2018-12-27T04:02:21.195Z,2.40
2018-12-27T04:03:48.026Z,2.40
2018-12-27T04:05:14.816Z,2.40
2018-12-27T04:06:21.784Z,2.40
2018-12-27T04:07:28.759Z,2.40
2018-12-27T04:08:35.767Z,2.50
2018-12-27T04:09:42.680Z,2.40
2018-12-27T04:10:49.669Z,2.40
2018-12-27T04:11:56.631Z,2.40
2018-12-27T04:13:03.606Z,2.40
2018-12-27T04:14:03.182Z,2.40
2018-12-27T04:15:03.875Z,2.40
2018-12-27T04:16:04.477Z,2.40
2018-12-27T04:17:04.026Z,2.40
2018-12-27T04:18:04.541Z,2.40
2018-12-27T04:19:04.292Z,2.40
2018-12-27T04:20:03.958Z,2.40
2018-12-27T04:20:51.538Z,2.50
2018-12-27T04:21:37.611Z,2.50
2018-12-27T04:22:23.346Z,2.40
2018-12-27T04:23:08.993Z,2.50
2018-12-27T04:23:55.885Z,2.50
2018-12-27T04:24:41.874Z,2.50
2018-12-27T04:25:29.088Z,2.50
2018-12-27T04:26:15.544Z,2.40
2018-12-27T04:27:01.238Z,2.40
2018-12-27T04:27:46.979Z,2.40
2018-12-27T04:28:32.616Z,2.40
2018-12-27T04:29:18.951Z,2.40
2018-12-27T04:30:04.775Z,2.50
2018-12-27T04:30:51.158Z,2.50
2018-12-27T04:31:37.561Z,2.50
2018-12-27T04:32:24.002Z,2.50
2018-12-27T04:33:12.802Z,2.40
2018-12-27T04:33:58.966Z,2.40
2018-12-27T04:34:45.475Z,2.40
2018-12-27T04:35:31.853Z,2.50
2018-12-27T04:36:17.896Z,2.50
2018-12-27T04:37:03.730Z,2.50
2018-12-27T04:37:49.643Z,2.50
2018-12-27T04:38:35.377Z,2.50
2018-12-27T04:39:21.001Z,2.50
2018-12-27T04:40:06.667Z,2.50
2018-12-27T04:40:52.355Z,2.50
2018-12-27T04:41:38.592Z,2.50
2018-12-27T04:42:24.959Z,2.50
2018-12-27T04:43:10.986Z,2.50
2018-12-27T04:43:57.052Z,2.50
2018-12-27T04:44:43.500Z,2.50
2018-12-27T04:45:29.747Z,2.50
2018-12-27T04:46:15.404Z,2.50
2018-12-27T04:47:01.190Z,2.50
2018-12-27T04:47:47.006Z,2.50
2018-12-27T04:48:32.863Z,2.50
2018-12-27T04:49:18.616Z,2.50
2018-12-27T04:50:04.531Z,2.50
2018-12-27T04:50:50.475Z,2.50
2018-12-27T04:51:36.151Z,2.50
2018-12-27T04:52:21.766Z,2.50
2018-12-27T04:53:07.491Z,2.50
2018-12-27T04:53:53.198Z,2.50
2018-12-27T04:54:38.835Z,2.50
2018-12-27T04:55:24.449Z,2.50
2018-12-27T04:56:10.039Z,2.50
2018-12-27T04:56:55.729Z,2.50
2018-12-27T04:57:41.443Z,2.50
2018-12-27T04:58:27.271Z,2.50
2018-12-27T04:59:13.621Z,2.50
2018-12-27T04:59:59.712Z,2.50
2018-12-27T05:00:45.360Z,2.50
2018-12-27T05:01:30.984Z,2.50
2018-12-27T05:02:16.630Z,2.50
2018-12-27T05:03:02.270Z,2.50
2018-12-27T05:03:47.966Z,2.50
2018-12-27T05:04:34.122Z,2.50
2018-12-27T05:05:20.374Z,2.60
2018-12-27T05:06:06.015Z,2.50
2018-12-27T05:06:52.289Z,2.50
2018-12-27T05:07:37.967Z,2.50
2018-12-27T05:08:23.715Z,2.50
2018-12-27T05:09:09.567Z,2.50
2018-12-27T05:09:55.762Z,2.50
2018-12-27T05:10:41.552Z,2.50
2018-12-27T05:11:27.331Z,2.50
2018-12-27T05:12:13.575Z,2.50
2018-12-27T05:12:59.244Z,2.50
2018-12-27T05:13:44.902Z,2.50
2018-12-27T05:14:30.575Z,2.50
2018-12-27T05:15:16.185Z,2.50
2018-12-27T05:16:01.916Z,2.50
2018-12-27T05:16:47.540Z,2.50
2018-12-27T05:17:33.391Z,2.50
2018-12-27T05:18:19.482Z,2.50
2018-12-27T05:19:05.143Z,2.50
2018-12-27T05:19:50.775Z,2.50
2018-12-27T05:20:36.536Z,2.50
2018-12-27T05:21:22.290Z,2.50
2018-12-27T05:22:08.563Z,2.50
2018-12-27T05:22:54.298Z,2.50
2018-12-27T05:23:40.041Z,2.50
2018-12-27T05:24:25.685Z,2.50
2018-12-27T05:25:11.871Z,2.50
2018-12-27T05:25:57.463Z,2.60
2018-12-27T05:26:43.129Z,2.60
2018-12-27T05:27:28.789Z,2.60
2018-12-27T05:28:14.391Z,2.60
2018-12-27T05:29:00.552Z,2.60
2018-12-27T05:29:46.264Z,2.60
2018-12-27T05:30:32.483Z,2.50
2018-12-27T05:31:18.276Z,2.60
2018-12-27T05:32:04.496Z,2.50
2018-12-27T05:32:50.258Z,2.50
2018-12-27T05:33:35.982Z,2.60
2018-12-27T05:34:26.220Z,2.50
2018-12-27T05:35:09.645Z,2.60
2018-12-27T05:35:55.446Z,2.60
2018-12-27T05:36:41.128Z,2.60
2018-12-27T05:37:26.733Z,2.50
2018-12-27T05:38:12.435Z,2.60
2018-12-27T05:38:58.104Z,2.60
2018-12-27T05:39:43.771Z,2.50
2018-12-27T05:40:29.427Z,2.60
2018-12-27T05:41:15.247Z,2.60
2018-12-27T05:42:01.166Z,2.60
2018-12-27T05:42:46.815Z,2.50
2018-12-27T05:43:32.547Z,2.60
2018-12-27T05:44:18.341Z,2.60
2018-12-27T05:45:04.318Z,2.50
2018-12-27T05:45:50.367Z,2.60
2018-12-27T05:46:36.090Z,2.50
2018-12-27T05:47:21.793Z,2.60
2018-12-27T05:48:07.944Z,2.60
2018-12-27T05:48:53.656Z,2.60
2018-12-27T05:49:39.291Z,2.50
2018-12-27T05:50:24.927Z,2.60
2018-12-27T05:51:11.151Z,2.50
2018-12-27T05:51:56.895Z,2.50
2018-12-27T05:52:42.609Z,2.50
2018-12-27T05:53:28.336Z,2.60
2018-12-27T05:54:14.520Z,2.50
2018-12-27T05:55:00.300Z,2.50
2018-12-27T05:55:46.044Z,2.50
2018-12-27T05:56:31.842Z,2.50
2018-12-27T05:57:17.629Z,2.50
2018-12-27T05:58:03.939Z,2.50
2018-12-27T05:58:49.647Z,2.50
2018-12-27T05:59:35.296Z,2.50
2018-12-27T06:00:21.043Z,2.50
2018-12-27T06:01:06.736Z,2.50
2018-12-27T06:01:52.371Z,2.50
2018-12-27T06:02:38.074Z,2.40
2018-12-27T06:03:23.715Z,2.50
2018-12-27T06:04:09.551Z,2.40
2018-12-27T06:04:55.556Z,2.40
2018-12-27T06:05:41.248Z,2.40
2018-12-27T06:06:27.001Z,2.40
2018-12-27T06:07:12.733Z,2.50
2018-12-27T06:07:58.569Z,2.40
2018-12-27T06:08:44.312Z,2.40
2018-12-27T06:09:30.194Z,2.40
2018-12-27T06:10:15.801Z,2.40
2018-12-27T06:11:01.472Z,2.40
2018-12-27T06:11:47.075Z,2.40
2018-12-27T06:12:33.293Z,2.40
2018-12-27T06:13:19.001Z,2.40
2018-12-27T06:14:04.916Z,2.40
2018-12-27T06:14:50.908Z,2.40
2018-12-27T06:15:36.575Z,2.40
2018-12-27T06:16:22.342Z,2.40
2018-12-27T06:17:08.152Z,2.40
2018-12-27T06:17:53.874Z,2.40
2018-12-27T06:18:39.631Z,2.40
2018-12-27T06:19:25.394Z,2.40
2018-12-27T06:20:11.175Z,2.40
2018-12-27T06:20:56.771Z,2.40
2018-12-27T06:21:42.474Z,2.40
2018-12-27T06:22:28.201Z,2.40
2018-12-27T06:23:13.785Z,2.40
2018-12-27T06:23:59.452Z,2.40
2018-12-27T06:24:46.007Z,2.40
2018-12-27T06:25:35.345Z,2.40
2018-12-27T06:26:21.283Z,2.40
2018-12-27T06:27:08.119Z,2.40
2018-12-27T06:27:54.139Z,2.40
2018-12-27T06:28:39.910Z,2.40
2018-12-27T06:29:26.028Z,2.40
2018-12-27T06:30:12.191Z,2.40
2018-12-27T06:30:57.889Z,2.40
2018-12-27T06:31:44.733Z,2.40
2018-12-27T06:32:30.674Z,2.40
2018-12-27T06:33:16.414Z,2.40
2018-12-27T06:34:02.179Z,2.40
2018-12-27T06:34:48.326Z,2.40
2018-12-27T06:35:34.322Z,2.40
2018-12-27T06:36:20.553Z,2.30
2018-12-27T06:37:06.431Z,2.40
2018-12-27T06:37:52.450Z,2.30
2018-12-27T06:38:38.135Z,2.30
2018-12-27T06:39:24.779Z,2.40
2018-12-27T06:40:11.019Z,2.40
2018-12-27T06:40:57.106Z,2.40
2018-12-27T06:41:43.247Z,2.40
2018-12-27T06:42:29.193Z,2.30
2018-12-27T06:43:15.129Z,2.40
2018-12-27T06:44:01.777Z,2.30
2018-12-27T06:44:47.775Z,2.30
2018-12-27T06:45:33.644Z,2.30
2018-12-27T06:46:20.037Z,2.30
2018-12-27T06:47:05.954Z,2.30
2018-12-27T06:47:52.052Z,2.30
2018-12-27T06:48:37.943Z,2.30
2018-12-27T06:49:23.983Z,2.30
2018-12-27T06:50:13.526Z,2.30
2018-12-27T06:50:59.208Z,2.30
2018-12-27T06:51:48.311Z,2.30
2018-12-27T06:52:35.456Z,2.30
2018-12-27T06:53:22.087Z,2.30
2018-12-27T06:54:08.374Z,2.30
2018-12-27T06:54:54.820Z,2.30
2018-12-27T06:55:41.043Z,2.30
2018-12-27T06:56:27.553Z,2.30
2018-12-27T06:57:13.519Z,2.30
2018-12-27T06:57:59.374Z,2.30
2018-12-27T06:58:45.398Z,2.30
2018-12-27T06:59:31.399Z,2.30
2018-12-27T07:00:17.125Z,2.30
2018-12-27T07:01:02.788Z,2.30
2018-12-27T07:01:48.689Z,2.30
2018-12-27T07:02:34.820Z,2.30
2018-12-27T07:03:20.740Z,2.20
2018-12-27T07:04:06.862Z,2.20
2018-12-27T07:04:53.075Z,2.20
2018-12-27T07:05:39.108Z,2.20
2018-12-27T07:06:24.969Z,2.20
2018-12-27T07:07:10.880Z,2.20
2018-12-27T07:07:56.565Z,2.20
2018-12-27T07:08:42.551Z,2.20
2018-12-27T07:09:28.462Z,2.20
2018-12-27T07:10:14.216Z,2.20
2018-12-27T07:11:00.289Z,2.20
2018-12-27T07:11:46.316Z,2.30
2018-12-27T07:12:32.537Z,2.20
2018-12-27T07:13:18.319Z,2.20
2018-12-27T07:14:05.379Z,2.20
2018-12-27T07:14:51.275Z,2.20
2018-12-27T07:15:37.637Z,2.30
2018-12-27T07:16:23.523Z,2.20
2018-12-27T07:17:09.247Z,2.20
2018-12-27T07:17:55.246Z,2.20
2018-12-27T07:18:41.223Z,2.20
2018-12-27T07:19:26.865Z,2.30
2018-12-27T07:20:12.516Z,2.20
2018-12-27T07:20:58.168Z,2.30
2018-12-27T07:21:43.877Z,2.20
2018-12-27T07:22:30.121Z,2.30
2018-12-27T07:23:16.331Z,2.30
2018-12-27T07:24:02.062Z,2.30
2018-12-27T07:24:47.843Z,2.30
2018-12-27T07:25:34.106Z,2.30
2018-12-27T07:26:21.654Z,2.30
2018-12-27T07:27:08.673Z,2.30
2018-12-27T07:27:54.997Z,2.30
2018-12-27T07:28:41.065Z,2.30
2018-12-27T07:29:26.776Z,2.30
2018-12-27T07:30:13.336Z,2.30
2018-12-27T07:30:59.063Z,2.30
2018-12-27T07:31:45.740Z,2.30
2018-12-27T07:32:31.712Z,2.30
2018-12-27T07:33:19.310Z,2.30
2018-12-27T07:34:08.928Z,2.30
2018-12-27T07:34:56.699Z,2.30
2018-12-27T07:35:42.735Z,2.30
2018-12-27T07:36:28.705Z,2.40
2018-12-27T07:37:14.388Z,2.30
2018-12-27T07:38:00.103Z,2.30
2018-12-27T07:38:45.854Z,2.30
2018-12-27T07:39:32.025Z,2.40
2018-12-27T07:40:17.692Z,2.30
2018-12-27T07:41:03.308Z,2.30
2018-12-27T07:41:49.013Z,2.30
2018-12-27T07:42:34.817Z,2.30
2018-12-27T07:43:20.522Z,2.30
2018-12-27T07:44:06.318Z,2.40
2018-12-27T07:44:52.520Z,2.40
2018-12-27T07:45:38.417Z,2.40
2018-12-27T07:46:24.534Z,2.40
2018-12-27T07:47:10.755Z,2.40
2018-12-27T07:47:56.591Z,2.40
2018-12-27T07:48:42.845Z,2.40
2018-12-27T07:49:28.574Z,2.40
2018-12-27T07:50:14.758Z,2.40
2018-12-27T07:51:00.981Z,2.40
2018-12-27T07:51:47.058Z,2.40
2018-12-27T07:52:33.200Z,2.40
2018-12-27T07:53:18.836Z,2.40
2018-12-27T07:54:04.491Z,2.40
2018-12-27T07:54:50.356Z,2.40
2018-12-27T07:55:36.246Z,2.40
2018-12-27T07:56:21.982Z,2.40
2018-12-27T07:57:07.732Z,2.50
2018-12-27T07:57:53.427Z,2.50
2018-12-27T07:58:39.186Z,2.40
2018-12-27T07:59:24.927Z,2.50
2018-12-27T08:00:10.764Z,2.50
2018-12-27T08:00:56.394Z,2.50
2018-12-27T08:01:42.107Z,2.50
2018-12-27T08:02:27.727Z,2.60
2018-12-27T08:03:13.383Z,2.50
2018-12-27T08:03:59.047Z,2.60
2018-12-27T08:04:44.799Z,2.50
2018-12-27T08:05:30.970Z,2.60
2018-12-27T08:06:16.597Z,2.50
2018-12-27T08:07:02.885Z,2.60
2018-12-27T08:07:48.584Z,2.60
2018-12-27T08:08:34.255Z,2.60
2018-12-27T08:09:20.017Z,2.60
2018-12-27T08:10:05.884Z,2.60
2018-12-27T08:10:51.746Z,2.60
2018-12-27T08:11:37.463Z,2.60
2018-12-27T08:12:23.164Z,2.60
2018-12-27T08:13:08.803Z,2.60
2018-12-27T08:13:54.560Z,2.70
2018-12-27T08:14:40.847Z,2.60
2018-12-27T08:15:26.570Z,2.60
2018-12-27T08:16:12.266Z,2.60
2018-12-27T08:16:57.884Z,2.70
2018-12-27T08:17:43.634Z,2.70
2018-12-27T08:18:29.778Z,2.70
2018-12-27T08:19:15.960Z,2.70
2018-12-27T08:20:01.698Z,2.70
2018-12-27T08:20:47.574Z,2.70
2018-12-27T08:21:33.724Z,2.70
2018-12-27T08:22:19.497Z,2.70
2018-12-27T08:23:05.223Z,2.70
2018-12-27T08:23:50.946Z,2.70
2018-12-27T08:24:37.146Z,2.80
2018-12-27T08:25:22.803Z,2.70
2018-12-27T08:26:08.523Z,2.80
2018-12-27T08:26:54.242Z,2.80
2018-12-27T08:27:40.467Z,2.80
2018-12-27T08:28:26.678Z,2.80
2018-12-27T08:29:12.430Z,2.80
2018-12-27T08:29:59.095Z,2.80
2018-12-27T08:30:44.936Z,2.80
2018-12-27T08:31:31.088Z,2.80
2018-12-27T08:32:17.576Z,2.80
2018-12-27T08:33:03.552Z,2.80
2018-12-27T08:33:49.379Z,2.80
2018-12-27T08:34:37.118Z,2.80
2018-12-27T08:35:22.959Z,2.90
2018-12-27T08:36:08.731Z,2.90
2018-12-27T08:36:54.513Z,2.90
2018-12-27T08:37:41.343Z,2.90
2018-12-27T08:38:30.852Z,2.90
2018-12-27T08:39:16.910Z,2.90
2018-12-27T08:40:03.637Z,2.90
2018-12-27T08:40:49.585Z,2.90
2018-12-27T08:41:35.939Z,2.90
2018-12-27T08:42:22.141Z,2.90
2018-12-27T08:43:08.434Z,2.90
2018-12-27T08:43:54.091Z,3.00
2018-12-27T08:44:39.815Z,3.00
2018-12-27T08:45:25.482Z,3.00
2018-12-27T08:46:11.151Z,3.00
2018-12-27T08:46:56.794Z,3.00
2018-12-27T08:47:43.041Z,3.00
2018-12-27T08:48:28.884Z,3.00
2018-12-27T08:49:15.177Z,3.00
2018-12-27T08:50:00.909Z,3.00
2018-12-27T08:50:46.653Z,3.00
2018-12-27T08:51:32.925Z,3.00
2018-12-27T08:52:19.048Z,3.10
2018-12-27T08:53:04.750Z,3.10
2018-12-27T08:53:50.525Z,3.10
2018-12-27T08:54:36.905Z,3.10
2018-12-27T08:55:23.175Z,3.10
2018-12-27T08:56:08.880Z,3.10
2018-12-27T08:56:54.981Z,3.10
2018-12-27T08:57:40.715Z,3.10
2018-12-27T08:58:26.944Z,3.20
2018-12-27T08:59:36.752Z,3.20
2018-12-27T09:00:22.575Z,3.20
2018-12-27T09:04:30.042Z,3.20
2018-12-27T09:05:19.035Z,3.20
2018-12-27T09:06:03.676Z,3.20
2018-12-27T09:06:49.404Z,3.20
2018-12-27T09:07:35.050Z,3.30
2018-12-27T09:08:20.707Z,3.30
2018-12-27T09:09:07.138Z,3.30
2018-12-27T09:11:57.720Z,3.30
2018-12-27T09:12:43.448Z,3.40
2018-12-27T09:13:29.620Z,3.40
2018-12-27T09:14:15.741Z,3.40
2018-12-27T09:15:01.913Z,3.40
2018-12-27T09:15:47.655Z,3.40
2018-12-27T09:16:33.290Z,3.40
2018-12-27T09:17:18.977Z,3.50
2018-12-27T09:18:04.666Z,3.50
2018-12-27T09:18:50.486Z,3.50
2018-12-27T09:19:36.774Z,3.60
2018-12-27T09:20:22.503Z,3.50
2018-12-27T09:21:08.263Z,3.60
2018-12-27T09:21:54.429Z,3.60
2018-12-27T09:22:40.318Z,3.60
2018-12-27T09:23:26.146Z,3.70
2018-12-27T09:24:11.855Z,3.70
2018-12-27T09:24:57.535Z,3.70
2018-12-27T09:25:43.194Z,3.80
2018-12-27T09:26:28.853Z,3.80
2018-12-27T09:27:15.131Z,3.80
2018-12-27T09:28:00.873Z,3.80
2018-12-27T09:28:47.006Z,3.90
2018-12-27T09:29:32.964Z,3.90
2018-12-27T09:30:18.848Z,3.90
2018-12-27T09:31:04.659Z,3.90
2018-12-27T09:31:50.416Z,3.90
2018-12-27T09:32:36.080Z,4.00
2018-12-27T09:33:21.739Z,4.00
2018-12-27T09:34:07.355Z,4.00
2018-12-27T09:34:53.039Z,4.00
2018-12-27T09:35:38.669Z,4.00
2018-12-27T09:36:24.309Z,4.10
2018-12-27T09:37:09.973Z,4.10
2018-12-27T09:37:55.667Z,4.10
2018-12-27T09:38:41.373Z,4.10
2018-12-27T09:39:27.579Z,4.20
2018-12-27T09:40:13.460Z,4.20
2018-12-27T09:40:59.742Z,4.20
2018-12-27T09:41:46.068Z,4.20
2018-12-27T09:42:31.840Z,4.20
2018-12-27T09:43:17.560Z,4.20
2018-12-27T09:44:03.177Z,4.20
2018-12-27T09:44:48.850Z,4.20
2018-12-27T09:45:35.001Z,4.30
2018-12-27T09:46:21.261Z,4.30
2018-12-27T09:47:06.955Z,4.30
2018-12-27T09:47:53.064Z,4.30
2018-12-27T09:48:38.752Z,4.30
2018-12-27T09:49:24.448Z,4.30
2018-12-27T09:50:10.121Z,4.30
2018-12-27T09:50:55.741Z,4.40
2018-12-27T09:51:41.505Z,4.40
2018-12-27T09:52:27.261Z,4.40
2018-12-27T09:53:13.126Z,4.50
2018-12-27T09:53:58.839Z,4.50
2018-12-27T09:54:44.504Z,4.60
2018-12-27T09:55:30.135Z,4.60
2018-12-27T09:56:15.851Z,4.60
2018-12-27T09:57:01.527Z,4.70
2018-12-27T09:57:47.746Z,4.80
2018-12-27T09:58:33.335Z,4.80
2018-12-27T09:59:18.917Z,4.90
2018-12-27T10:00:05.162Z,4.90
2018-12-27T10:00:50.771Z,4.90
2018-12-27T10:01:36.458Z,5.00
2018-12-27T10:02:22.211Z,5.00
2018-12-27T10:03:07.951Z,5.00
2018-12-27T10:03:54.266Z,5.00
2018-12-27T10:04:40.116Z,5.10
2018-12-27T10:05:25.841Z,5.10
2018-12-27T10:06:12.232Z,5.10
2018-12-27T10:06:58.681Z,5.10
2018-12-27T10:07:44.378Z,5.00
2018-12-27T10:08:30.021Z,5.00
2018-12-27T10:09:19.656Z,5.00
2018-12-27T10:10:05.812Z,4.90
2018-12-27T10:10:51.722Z,4.90
2018-12-27T10:11:37.359Z,4.90
2018-12-27T10:12:22.999Z,5.00
2018-12-27T10:13:08.694Z,5.00
2018-12-27T10:13:54.407Z,4.90
2018-12-27T10:14:40.027Z,4.90
2018-12-27T10:15:25.719Z,4.90
2018-12-27T10:16:12.083Z,4.90
2018-12-27T10:16:58.308Z,4.90
2018-12-27T10:17:44.064Z,4.90
2018-12-27T10:18:29.710Z,4.90
2018-12-27T10:19:15.516Z,4.90
2018-12-27T10:20:01.854Z,4.90
2018-12-27T10:20:47.627Z,4.90
2018-12-27T10:21:33.267Z,5.00
2018-12-27T10:22:19.049Z,5.00
2018-12-27T10:23:05.190Z,5.10
2018-12-27T10:23:50.787Z,5.10
2018-12-27T10:24:36.466Z,5.10
2018-12-27T10:25:22.144Z,5.10
2018-12-27T10:26:10.222Z,5.20
2018-12-27T10:26:56.038Z,5.20
2018-12-27T10:27:41.747Z,5.30
2018-12-27T10:28:27.290Z,5.30
2018-12-27T10:29:13.107Z,5.30
2018-12-27T10:29:59.429Z,5.30
2018-12-27T10:30:45.525Z,5.30
2018-12-27T10:31:31.764Z,5.30
2018-12-27T10:32:17.455Z,5.30
2018-12-27T10:33:03.272Z,5.20
2018-12-27T10:33:49.616Z,5.20
2018-12-27T10:34:35.288Z,5.20
2018-12-27T10:35:21.118Z,5.20
2018-12-27T10:36:10.581Z,5.20
2018-12-27T10:36:56.440Z,5.20
2018-12-27T10:37:42.646Z,5.20
2018-12-27T10:38:28.300Z,5.20
2018-12-27T10:39:13.911Z,5.20
2018-12-27T10:39:59.569Z,5.20
2018-12-27T10:40:45.250Z,5.20
2018-12-27T10:41:30.909Z,5.30
2018-12-27T10:42:16.872Z,5.30
2018-12-27T10:43:02.868Z,5.30
2018-12-27T10:43:48.676Z,5.30
2018-12-27T10:44:34.727Z,5.40
2018-12-27T10:45:20.403Z,5.30
2018-12-27T10:46:06.136Z,5.40
2018-12-27T10:46:51.949Z,5.40
2018-12-27T10:47:37.723Z,5.40
2018-12-27T10:48:23.519Z,5.50
2018-12-27T10:49:09.667Z,5.50
2018-12-27T10:49:55.248Z,5.50
2018-12-27T10:50:40.900Z,5.60
2018-12-27T10:51:26.606Z,5.60
2018-12-27T10:52:12.763Z,5.70
2018-12-27T10:52:58.468Z,5.70
2018-12-27T10:53:44.046Z,5.70
2018-12-27T10:54:29.731Z,5.70
2018-12-27T10:55:15.495Z,5.70
2018-12-27T10:56:01.658Z,5.70
2018-12-27T10:56:47.384Z,5.70
2018-12-27T10:57:34.864Z,5.70
2018-12-27T10:58:20.911Z,5.80
2018-12-27T10:59:06.789Z,5.80
2018-12-27T10:59:52.910Z,5.90
2018-12-27T11:00:39.232Z,5.90
2018-12-27T11:01:25.051Z,5.90
2018-12-27T11:02:10.738Z,5.90
2018-12-27T11:02:56.447Z,5.90
2018-12-27T11:03:42.667Z,5.90
2018-12-27T11:04:28.263Z,5.90
2018-12-27T11:05:13.950Z,5.90
2018-12-27T11:05:59.601Z,6.00
2018-12-27T11:06:45.262Z,5.90
2018-12-27T11:07:31.457Z,5.90
2018-12-27T11:08:17.610Z,6.00
2018-12-27T11:09:05.710Z,5.90
2018-12-27T11:09:51.592Z,6.00
2018-12-27T11:10:37.320Z,6.00
2018-12-27T11:11:23.053Z,6.00
2018-12-27T11:12:08.813Z,6.00
2018-12-27T11:12:55.355Z,6.00
2018-12-27T11:13:41.435Z,6.10
2018-12-27T11:14:27.596Z,6.10
2018-12-27T11:15:13.348Z,6.10
2018-12-27T11:15:58.940Z,6.10
2018-12-27T11:16:44.618Z,6.10
2018-12-27T11:17:30.283Z,6.10
2018-12-27T11:18:16.069Z,6.10
2018-12-27T11:19:01.991Z,6.20
2018-12-27T11:19:47.656Z,6.20
2018-12-27T11:20:33.844Z,6.20
2018-12-27T11:21:19.577Z,6.20
2018-12-27T11:22:05.173Z,6.30
2018-12-27T11:22:50.909Z,6.30
2018-12-27T11:23:37.159Z,6.30
2018-12-27T11:24:22.966Z,6.30
2018-12-27T11:25:09.066Z,6.20
2018-12-27T11:25:54.840Z,6.30
2018-12-27T11:26:41.024Z,6.30
2018-12-27T11:27:26.701Z,6.30
2018-12-27T11:28:12.393Z,6.40
2018-12-27T11:28:58.063Z,6.40
2018-12-27T11:29:43.797Z,6.40
2018-12-27T11:30:30.012Z,6.40
2018-12-27T11:31:15.675Z,6.40
2018-12-27T11:32:01.676Z,6.40
2018-12-27T11:32:47.422Z,6.40
2018-12-27T11:33:33.079Z,6.40
2018-12-27T11:34:18.736Z,6.50
2018-12-27T11:35:04.735Z,6.50
2018-12-27T11:35:55.804Z,6.50
2018-12-27T11:36:38.513Z,6.50
2018-12-27T11:37:24.227Z,6.60
2018-12-27T11:38:10.012Z,6.60
2018-12-27T11:38:55.944Z,6.60
2018-12-27T11:39:41.796Z,6.60
2018-12-27T11:40:27.422Z,6.60
2018-12-27T11:41:13.008Z,6.60
2018-12-27T11:41:58.756Z,6.60
2018-12-27T11:42:44.875Z,6.60
2018-12-27T11:43:30.525Z,6.60
2018-12-27T11:44:16.227Z,6.60
2018-12-27T11:45:02.361Z,6.60